sensor_id;sensor_type;location;lat;lon;timestamp;temperature;humidity
5246;DHT22;54412;51.206;6.888;2022-11-20T00:01:20;5.30;99.90
5246;DHT22;54412;51.206;6.888;2022-11-20T00:03:48;5.40;99.90
5246;DHT22;54412;51.206;6.888;2022-11-20T00:06:16;5.40;99.90
5246;DHT22;54412;51.206;6.888;2022-11-20T00:08:43;5.40;99.90
5246;DHT22;54412;51.206;6.888;2022-11-20T00:11:12;5.20;99.90
5246;DHT22;54412;51.206;6.888;2022-11-20T00:13:40;5.10;99.90
5246;DHT22;54412;51.206;6.888;2022-11-20T00:16:09;5.30;99.90
5246;DHT22;54412;51.206;6.888;2022-11-20T00:18:36;5.30;99.90
5246;DHT22;54412;51.206;6.888;2022-11-20T00:21:07;5.20;99.90
5246;DHT22;54412;51.206;6.888;2022-11-20T00:23:37;5.30;99.90
5246;DHT22;54412;51.206;6.888;2022-11-20T00:26:07;5.20;99.90
5246;DHT22;54412;51.206;6.888;2022-11-20T00:28:38;5.30;99.90
5246;DHT22;54412;51.206;6.888;2022-11-20T00:31:06;5.20;99.90
5246;DHT22;54412;51.206;6.888;2022-11-20T00:33:34;5.20;99.90
5246;DHT22;54412;51.206;6.888;2022-11-20T00:36:02;5.30;99.90
5246;DHT22;54412;51.206;6.888;2022-11-20T00:38:30;5.20;99.90
5246;DHT22;54412;51.206;6.888;2022-11-20T00:41:00;5.20;99.90
5246;DHT22;54412;51.206;6.888;2022-11-20T00:43:27;5.10;99.90
5246;DHT22;54412;51.206;6.888;2022-11-20T00:46:16;5.10;99.90
5246;DHT22;54412;51.206;6.888;2022-11-20T00:48:44;5.10;99.90
5246;DHT22;54412;51.206;6.888;2022-11-20T00:51:15;5.10;99.90
5246;DHT22;54412;51.206;6.888;2022-11-20T00:53:43;5.20;99.90
5246;DHT22;54412;51.206;6.888;2022-11-20T00:56:12;5.20;99.90
5246;DHT22;54412;51.206;6.888;2022-11-20T00:58:41;5.10;99.90
5246;DHT22;54412;51.206;6.888;2022-11-20T01:01:11;5.20;99.90
5246;DHT22;54412;51.206;6.888;2022-11-20T01:03:41;5.00;99.90
5246;DHT22;54412;51.206;6.888;2022-11-20T01:06:32;5.10;99.90
5246;DHT22;54412;51.206;6.888;2022-11-20T01:09:04;5.10;99.90
5246;DHT22;54412;51.206;6.888;2022-11-20T01:11:38;5.10;99.90
5246;DHT22;54412;51.206;6.888;2022-11-20T01:14:09;5.10;99.90
5246;DHT22;54412;51.206;6.888;2022-11-20T01:16:40;5.10;99.90
5246;DHT22;54412;51.206;6.888;2022-11-20T01:19:11;5.20;99.90
5246;DHT22;54412;51.206;6.888;2022-11-20T01:21:43;5.20;99.90
5246;DHT22;54412;51.206;6.888;2022-11-20T01:24:12;5.20;99.90
5246;DHT22;54412;51.206;6.888;2022-11-20T01:26:41;5.30;99.90
5246;DHT22;54412;51.206;6.888;2022-11-20T01:29:13;5.30;99.90
5246;DHT22;54412;51.206;6.888;2022-11-20T01:31:42;5.30;99.90
5246;DHT22;54412;51.206;6.888;2022-11-20T01:34:17;5.20;99.90
5246;DHT22;54412;51.206;6.888;2022-11-20T01:36:45;5.30;99.90
5246;DHT22;54412;51.206;6.888;2022-11-20T01:39:31;5.20;99.90
5246;DHT22;54412;51.206;6.888;2022-11-20T01:41:57;5.10;99.90
5246;DHT22;54412;51.206;6.888;2022-11-20T01:45:00;5.30;99.90
5246;DHT22;54412;51.206;6.888;2022-11-20T01:50:34;5.30;99.90
5246;DHT22;54412;51.206;6.888;2022-11-20T01:53:03;5.30;99.90
5246;DHT22;54412;51.206;6.888;2022-11-20T01:55:36;5.30;99.90
5246;DHT22;54412;51.206;6.888;2022-11-20T01:58:07;5.10;99.90
5246;DHT22;54412;51.206;6.888;2022-11-20T02:00:33;5.10;99.90
5246;DHT22;54412;51.206;6.888;2022-11-20T02:03:07;5.20;99.90
5246;DHT22;54412;51.206;6.888;2022-11-20T02:06:01;5.10;99.90
5246;DHT22;54412;51.206;6.888;2022-11-20T02:08:34;5.20;99.90
5246;DHT22;54412;51.206;6.888;2022-11-20T02:11:01;5.10;99.90
5246;DHT22;54412;51.206;6.888;2022-11-20T02:13:27;5.10;99.90
5246;DHT22;54412;51.206;6.888;2022-11-20T02:16:17;5.10;99.90
5246;DHT22;54412;51.206;6.888;2022-11-20T02:18:46;5.10;99.90
5246;DHT22;54412;51.206;6.888;2022-11-20T02:21:40;5.20;99.90
5246;DHT22;54412;51.206;6.888;2022-11-20T02:24:17;5.20;99.90
5246;DHT22;54412;51.206;6.888;2022-11-20T02:29:42;5.20;99.90
5246;DHT22;54412;51.206;6.888;2022-11-20T02:32:28;5.20;99.90
5246;DHT22;54412;51.206;6.888;2022-11-20T02:34:56;5.20;99.90
5246;DHT22;54412;51.206;6.888;2022-11-20T02:37:23;5.30;99.90
5246;DHT22;54412;51.206;6.888;2022-11-20T02:39:55;5.20;99.90
5246;DHT22;54412;51.206;6.888;2022-11-20T02:42:21;5.20;99.90
5246;DHT22;54412;51.206;6.888;2022-11-20T02:44:47;5.00;99.90
5246;DHT22;54412;51.206;6.888;2022-11-20T02:47:13;4.90;99.90
5246;DHT22;54412;51.206;6.888;2022-11-20T02:49:38;4.90;99.90
5246;DHT22;54412;51.206;6.888;2022-11-20T02:52:04;4.90;99.90
5246;DHT22;54412;51.206;6.888;2022-11-20T02:54:30;5.00;99.90
5246;DHT22;54412;51.206;6.888;2022-11-20T02:56:56;5.10;99.90
5246;DHT22;54412;51.206;6.888;2022-11-20T02:59:21;5.20;99.90
5246;DHT22;54412;51.206;6.888;2022-11-20T03:01:47;5.20;99.90
5246;DHT22;54412;51.206;6.888;2022-11-20T03:04:13;5.10;99.90
5246;DHT22;54412;51.206;6.888;2022-11-20T03:06:38;5.10;99.90
5246;DHT22;54412;51.206;6.888;2022-11-20T03:09:04;5.30;99.90
5246;DHT22;54412;51.206;6.888;2022-11-20T03:11:29;5.30;99.90
5246;DHT22;54412;51.206;6.888;2022-11-20T03:13:55;5.10;99.90
5246;DHT22;54412;51.206;6.888;2022-11-20T03:16:22;5.10;99.90
5246;DHT22;54412;51.206;6.888;2022-11-20T03:18:50;5.10;99.90
5246;DHT22;54412;51.206;6.888;2022-11-20T03:21:17;5.00;99.90
5246;DHT22;54412;51.206;6.888;2022-11-20T03:23:43;5.00;99.90
5246;DHT22;54412;51.206;6.888;2022-11-20T03:26:21;5.10;99.90
5246;DHT22;54412;51.206;6.888;2022-11-20T03:28:53;5.10;99.90
5246;DHT22;54412;51.206;6.888;2022-11-20T03:31:23;5.10;99.90
5246;DHT22;54412;51.206;6.888;2022-11-20T03:33:50;5.10;99.90
5246;DHT22;54412;51.206;6.888;2022-11-20T03:36:17;5.00;99.90
5246;DHT22;54412;51.206;6.888;2022-11-20T03:38:44;5.10;99.90
5246;DHT22;54412;51.206;6.888;2022-11-20T03:41:12;5.10;99.90
5246;DHT22;54412;51.206;6.888;2022-11-20T03:43:40;5.10;99.90
5246;DHT22;54412;51.206;6.888;2022-11-20T03:46:06;5.30;99.90
5246;DHT22;54412;51.206;6.888;2022-11-20T03:48:33;5.10;99.90
5246;DHT22;54412;51.206;6.888;2022-11-20T03:51:09;5.10;99.90
5246;DHT22;54412;51.206;6.888;2022-11-20T03:53:38;5.20;99.90
5246;DHT22;54412;51.206;6.888;2022-11-20T03:56:05;5.30;99.90
5246;DHT22;54412;51.206;6.888;2022-11-20T03:58:33;5.30;99.90
5246;DHT22;54412;51.206;6.888;2022-11-20T04:01:09;5.40;99.90
5246;DHT22;54412;51.206;6.888;2022-11-20T04:03:35;5.40;99.90
5246;DHT22;54412;51.206;6.888;2022-11-20T04:06:04;5.50;99.90
5246;DHT22;54412;51.206;6.888;2022-11-20T04:08:31;5.40;99.90
5246;DHT22;54412;51.206;6.888;2022-11-20T04:11:21;5.30;99.90
5246;DHT22;54412;51.206;6.888;2022-11-20T04:13:57;5.20;99.90
5246;DHT22;54412;51.206;6.888;2022-11-20T04:16:25;5.10;99.90
5246;DHT22;54412;51.206;6.888;2022-11-20T04:18:58;5.10;99.90
5246;DHT22;54412;51.206;6.888;2022-11-20T04:21:27;5.10;99.90
5246;DHT22;54412;51.206;6.888;2022-11-20T04:23:54;5.10;99.90
5246;DHT22;54412;51.206;6.888;2022-11-20T04:26:22;5.10;99.90
5246;DHT22;54412;51.206;6.888;2022-11-20T04:28:49;5.00;99.90
5246;DHT22;54412;51.206;6.888;2022-11-20T04:31:19;5.10;99.90
5246;DHT22;54412;51.206;6.888;2022-11-20T04:33:46;5.10;99.90
5246;DHT22;54412;51.206;6.888;2022-11-20T04:36:16;5.20;99.90
5246;DHT22;54412;51.206;6.888;2022-11-20T04:38:44;5.20;99.90
5246;DHT22;54412;51.206;6.888;2022-11-20T04:41:15;5.10;99.90
5246;DHT22;54412;51.206;6.888;2022-11-20T04:43:49;5.20;99.90
5246;DHT22;54412;51.206;6.888;2022-11-20T04:46:18;4.90;99.90
5246;DHT22;54412;51.206;6.888;2022-11-20T04:48:45;5.10;99.90
5246;DHT22;54412;51.206;6.888;2022-11-20T04:51:12;5.10;99.90
5246;DHT22;54412;51.206;6.888;2022-11-20T04:53:38;5.20;99.90
5246;DHT22;54412;51.206;6.888;2022-11-20T04:56:06;5.00;99.90
5246;DHT22;54412;51.206;6.888;2022-11-20T04:58:33;5.10;99.90
5246;DHT22;54412;51.206;6.888;2022-11-20T05:01:07;5.10;99.90
5246;DHT22;54412;51.206;6.888;2022-11-20T05:03:38;5.30;99.90
5246;DHT22;54412;51.206;6.888;2022-11-20T05:06:05;5.40;99.90
5246;DHT22;54412;51.206;6.888;2022-11-20T05:08:32;5.50;99.90
5246;DHT22;54412;51.206;6.888;2022-11-20T05:11:03;5.30;99.90
5246;DHT22;54412;51.206;6.888;2022-11-20T05:13:33;5.20;99.90
5246;DHT22;54412;51.206;6.888;2022-11-20T05:16:05;5.20;99.90
5246;DHT22;54412;51.206;6.888;2022-11-20T05:18:36;5.20;99.90
5246;DHT22;54412;51.206;6.888;2022-11-20T05:21:02;5.20;99.90
5246;DHT22;54412;51.206;6.888;2022-11-20T05:23:30;5.20;99.90
5246;DHT22;54412;51.206;6.888;2022-11-20T05:25:57;5.30;99.90
5246;DHT22;54412;51.206;6.888;2022-11-20T05:28:24;5.30;99.90
5246;DHT22;54412;51.206;6.888;2022-11-20T05:30:51;5.30;99.90
5246;DHT22;54412;51.206;6.888;2022-11-20T05:33:17;5.40;99.90
5246;DHT22;54412;51.206;6.888;2022-11-20T05:35:43;5.50;99.90
5246;DHT22;54412;51.206;6.888;2022-11-20T05:38:09;5.50;99.90
5246;DHT22;54412;51.206;6.888;2022-11-20T05:40:36;5.50;99.90
5246;DHT22;54412;51.206;6.888;2022-11-20T05:43:02;5.60;99.90
5246;DHT22;54412;51.206;6.888;2022-11-20T05:45:28;5.40;99.90
5246;DHT22;54412;51.206;6.888;2022-11-20T05:47:57;5.50;99.90
5246;DHT22;54412;51.206;6.888;2022-11-20T05:50:23;5.40;99.90
5246;DHT22;54412;51.206;6.888;2022-11-20T05:52:49;5.50;99.90
5246;DHT22;54412;51.206;6.888;2022-11-20T05:55:14;5.40;99.90
5246;DHT22;54412;51.206;6.888;2022-11-20T05:57:40;5.40;99.90
5246;DHT22;54412;51.206;6.888;2022-11-20T06:00:07;5.40;99.90
5246;DHT22;54412;51.206;6.888;2022-11-20T06:02:35;5.30;99.90
5246;DHT22;54412;51.206;6.888;2022-11-20T06:05:01;5.30;99.90
5246;DHT22;54412;51.206;6.888;2022-11-20T06:07:27;5.50;99.90
5246;DHT22;54412;51.206;6.888;2022-11-20T06:09:52;5.60;99.90
5246;DHT22;54412;51.206;6.888;2022-11-20T06:12:18;5.50;99.90
5246;DHT22;54412;51.206;6.888;2022-11-20T06:14:44;5.50;99.90
5246;DHT22;54412;51.206;6.888;2022-11-20T06:17:09;5.50;99.90
5246;DHT22;54412;51.206;6.888;2022-11-20T06:19:35;5.50;99.90
5246;DHT22;54412;51.206;6.888;2022-11-20T06:22:00;5.50;99.90
5246;DHT22;54412;51.206;6.888;2022-11-20T06:24:26;5.50;99.90
5246;DHT22;54412;51.206;6.888;2022-11-20T06:26:52;5.40;99.90
5246;DHT22;54412;51.206;6.888;2022-11-20T06:29:17;5.50;99.90
5246;DHT22;54412;51.206;6.888;2022-11-20T06:31:43;5.50;99.90
5246;DHT22;54412;51.206;6.888;2022-11-20T06:34:09;5.50;99.90
5246;DHT22;54412;51.206;6.888;2022-11-20T06:36:34;5.40;99.90
5246;DHT22;54412;51.206;6.888;2022-11-20T06:39:00;5.30;99.90
5246;DHT22;54412;51.206;6.888;2022-11-20T06:41:26;5.40;99.90
5246;DHT22;54412;51.206;6.888;2022-11-20T06:43:53;5.40;99.90
5246;DHT22;54412;51.206;6.888;2022-11-20T06:46:20;5.30;99.90
5246;DHT22;54412;51.206;6.888;2022-11-20T06:48:47;5.30;99.90
5246;DHT22;54412;51.206;6.888;2022-11-20T06:51:14;5.30;99.90
5246;DHT22;54412;51.206;6.888;2022-11-20T06:53:40;5.40;99.90
5246;DHT22;54412;51.206;6.888;2022-11-20T06:56:06;5.50;99.90
5246;DHT22;54412;51.206;6.888;2022-11-20T06:58:34;5.50;99.90
5246;DHT22;54412;51.206;6.888;2022-11-20T07:01:01;5.50;99.90
5246;DHT22;54412;51.206;6.888;2022-11-20T07:03:32;5.50;99.90
5246;DHT22;54412;51.206;6.888;2022-11-20T07:06:00;5.40;99.90
5246;DHT22;54412;51.206;6.888;2022-11-20T07:08:26;5.40;99.90
5246;DHT22;54412;51.206;6.888;2022-11-20T07:10:56;5.30;99.90
5246;DHT22;54412;51.206;6.888;2022-11-20T07:13:23;5.20;99.90
5246;DHT22;54412;51.206;6.888;2022-11-20T07:15:49;5.10;99.90
5246;DHT22;54412;51.206;6.888;2022-11-20T07:18:15;5.10;99.90
5246;DHT22;54412;51.206;6.888;2022-11-20T07:20:40;5.10;99.90
5246;DHT22;54412;51.206;6.888;2022-11-20T07:23:06;5.10;99.90
5246;DHT22;54412;51.206;6.888;2022-11-20T07:25:32;5.10;99.90
5246;DHT22;54412;51.206;6.888;2022-11-20T07:27:58;4.90;99.90
5246;DHT22;54412;51.206;6.888;2022-11-20T07:30:27;4.60;99.90
5246;DHT22;54412;51.206;6.888;2022-11-20T07:32:54;4.60;99.90
5246;DHT22;54412;51.206;6.888;2022-11-20T07:35:22;4.70;99.90
5246;DHT22;54412;51.206;6.888;2022-11-20T07:37:48;4.80;99.90
5246;DHT22;54412;51.206;6.888;2022-11-20T07:40:15;4.90;99.90
5246;DHT22;54412;51.206;6.888;2022-11-20T07:42:52;4.90;99.90
5246;DHT22;54412;51.206;6.888;2022-11-20T07:45:20;4.90;99.90
5246;DHT22;54412;51.206;6.888;2022-11-20T07:47:47;4.90;99.90
5246;DHT22;54412;51.206;6.888;2022-11-20T07:50:13;4.80;99.90
5246;DHT22;54412;51.206;6.888;2022-11-20T07:52:40;4.90;99.90
5246;DHT22;54412;51.206;6.888;2022-11-20T07:55:09;4.90;99.90
5246;DHT22;54412;51.206;6.888;2022-11-20T07:57:35;5.00;99.90
5246;DHT22;54412;51.206;6.888;2022-11-20T08:00:02;5.00;99.90
5246;DHT22;54412;51.206;6.888;2022-11-20T08:02:29;5.10;99.90
5246;DHT22;54412;51.206;6.888;2022-11-20T08:04:55;5.20;99.90
5246;DHT22;54412;51.206;6.888;2022-11-20T08:07:20;5.10;99.90
5246;DHT22;54412;51.206;6.888;2022-11-20T08:09:46;5.00;99.90
5246;DHT22;54412;51.206;6.888;2022-11-20T08:12:20;5.20;99.90
5246;DHT22;54412;51.206;6.888;2022-11-20T08:15:05;5.30;99.90
5246;DHT22;54412;51.206;6.888;2022-11-20T08:17:32;5.30;99.90
5246;DHT22;54412;51.206;6.888;2022-11-20T08:19:57;5.40;99.90
5246;DHT22;54412;51.206;6.888;2022-11-20T08:22:23;5.50;99.90
5246;DHT22;54412;51.206;6.888;2022-11-20T08:24:50;5.50;99.90
5246;DHT22;54412;51.206;6.888;2022-11-20T08:27:15;5.50;99.90
5246;DHT22;54412;51.206;6.888;2022-11-20T08:29:41;5.60;99.90
5246;DHT22;54412;51.206;6.888;2022-11-20T08:32:07;5.40;99.90
5246;DHT22;54412;51.206;6.888;2022-11-20T08:34:32;5.30;99.90
5246;DHT22;54412;51.206;6.888;2022-11-20T08:36:58;5.30;99.90
5246;DHT22;54412;51.206;6.888;2022-11-20T08:39:24;5.30;99.90
5246;DHT22;54412;51.206;6.888;2022-11-20T08:41:49;5.30;99.90
5246;DHT22;54412;51.206;6.888;2022-11-20T08:44:15;5.40;99.90
5246;DHT22;54412;51.206;6.888;2022-11-20T08:46:42;5.20;99.90
5246;DHT22;54412;51.206;6.888;2022-11-20T08:49:10;5.30;99.90
5246;DHT22;54412;51.206;6.888;2022-11-20T08:51:38;5.20;99.90
5246;DHT22;54412;51.206;6.888;2022-11-20T08:54:04;5.30;99.90
5246;DHT22;54412;51.206;6.888;2022-11-20T08:56:31;5.40;99.90
5246;DHT22;54412;51.206;6.888;2022-11-20T08:58:57;5.40;99.90
5246;DHT22;54412;51.206;6.888;2022-11-20T09:01:25;5.30;99.90
5246;DHT22;54412;51.206;6.888;2022-11-20T09:03:51;5.30;99.90
5246;DHT22;54412;51.206;6.888;2022-11-20T09:06:17;5.20;99.90
5246;DHT22;54412;51.206;6.888;2022-11-20T09:08:43;5.30;99.90
5246;DHT22;54412;51.206;6.888;2022-11-20T09:11:09;5.00;99.90
5246;DHT22;54412;51.206;6.888;2022-11-20T09:13:36;5.30;99.90
5246;DHT22;54412;51.206;6.888;2022-11-20T09:16:04;5.50;99.90
5246;DHT22;54412;51.206;6.888;2022-11-20T09:18:33;5.40;99.90
5246;DHT22;54412;51.206;6.888;2022-11-20T09:21:05;5.30;99.90
5246;DHT22;54412;51.206;6.888;2022-11-20T09:23:34;5.30;99.90
5246;DHT22;54412;51.206;6.888;2022-11-20T09:26:09;5.30;99.90
5246;DHT22;54412;51.206;6.888;2022-11-20T09:28:37;5.40;99.90
5246;DHT22;54412;51.206;6.888;2022-11-20T09:31:23;5.30;99.90
5246;DHT22;54412;51.206;6.888;2022-11-20T09:33:52;5.30;99.90
5246;DHT22;54412;51.206;6.888;2022-11-20T09:36:18;5.30;99.90
5246;DHT22;54412;51.206;6.888;2022-11-20T09:38:47;5.30;99.90
5246;DHT22;54412;51.206;6.888;2022-11-20T09:47:15;5.00;99.90
5246;DHT22;54412;51.206;6.888;2022-11-20T09:49:59;5.20;99.90
5246;DHT22;54412;51.206;6.888;2022-11-20T09:55:13;5.30;99.90
5246;DHT22;54412;51.206;6.888;2022-11-20T09:57:44;5.60;99.90
5246;DHT22;54412;51.206;6.888;2022-11-20T10:00:14;5.90;99.90
5246;DHT22;54412;51.206;6.888;2022-11-20T10:10:50;5.80;99.90
5246;DHT22;54412;51.206;6.888;2022-11-20T10:17:31;5.80;99.90
5246;DHT22;54412;51.206;6.888;2022-11-20T10:19:47;5.90;99.90
5246;DHT22;54412;51.206;6.888;2022-11-20T10:22:43;5.90;99.90
5246;DHT22;54412;51.206;6.888;2022-11-20T10:25:18;5.70;99.90
5246;DHT22;54412;51.206;6.888;2022-11-20T10:30:25;5.70;99.90
5246;DHT22;54412;51.206;6.888;2022-11-20T10:32:54;5.60;99.90
5246;DHT22;54412;51.206;6.888;2022-11-20T10:38:38;5.60;99.90
5246;DHT22;54412;51.206;6.888;2022-11-20T10:41:38;5.70;99.90
5246;DHT22;54412;51.206;6.888;2022-11-20T10:46:43;5.40;99.90
5246;DHT22;54412;51.206;6.888;2022-11-20T10:49:15;5.60;99.90
5246;DHT22;54412;51.206;6.888;2022-11-20T10:52:07;5.80;99.90
5246;DHT22;54412;51.206;6.888;2022-11-20T10:54:58;5.60;99.90
5246;DHT22;54412;51.206;6.888;2022-11-20T10:58:01;5.70;99.90
5246;DHT22;54412;51.206;6.888;2022-11-20T11:00:35;5.70;99.90
5246;DHT22;54412;51.206;6.888;2022-11-20T11:03:01;5.70;99.90
5246;DHT22;54412;51.206;6.888;2022-11-20T11:05:43;5.70;99.90
5246;DHT22;54412;51.206;6.888;2022-11-20T11:08:17;5.60;99.90
5246;DHT22;54412;51.206;6.888;2022-11-20T11:13:29;5.80;99.90
5246;DHT22;54412;51.206;6.888;2022-11-20T11:15:56;5.90;99.90
5246;DHT22;54412;51.206;6.888;2022-11-20T11:18:33;5.70;99.90
5246;DHT22;54412;51.206;6.888;2022-11-20T11:21:01;5.70;99.90
5246;DHT22;54412;51.206;6.888;2022-11-20T11:23:40;5.70;99.90
5246;DHT22;54412;51.206;6.888;2022-11-20T11:26:21;5.70;99.90
5246;DHT22;54412;51.206;6.888;2022-11-20T11:29:03;5.70;99.90
5246;DHT22;54412;51.206;6.888;2022-11-20T11:31:34;5.80;99.90
5246;DHT22;54412;51.206;6.888;2022-11-20T11:34:15;5.80;99.90
5246;DHT22;54412;51.206;6.888;2022-11-20T11:36:56;5.80;99.90
5246;DHT22;54412;51.206;6.888;2022-11-20T11:39:23;5.70;99.90
5246;DHT22;54412;51.206;6.888;2022-11-20T11:41:52;5.80;99.90
5246;DHT22;54412;51.206;6.888;2022-11-20T11:44:30;5.80;99.90
5246;DHT22;54412;51.206;6.888;2022-11-20T11:52:51;5.80;99.90
5246;DHT22;54412;51.206;6.888;2022-11-20T11:55:44;6.00;99.90
5246;DHT22;54412;51.206;6.888;2022-11-20T11:58:47;5.90;99.90
5246;DHT22;54412;51.206;6.888;2022-11-20T12:01:54;6.00;99.90
5246;DHT22;54412;51.206;6.888;2022-11-20T12:07:38;6.00;99.90
5246;DHT22;54412;51.206;6.888;2022-11-20T12:10:15;6.00;99.90
5246;DHT22;54412;51.206;6.888;2022-11-20T12:13:20;5.80;99.90
5246;DHT22;54412;51.206;6.888;2022-11-20T12:15:59;5.90;99.90
5246;DHT22;54412;51.206;6.888;2022-11-20T12:18:26;6.00;99.90
5246;DHT22;54412;51.206;6.888;2022-11-20T12:21:04;6.10;99.90
5246;DHT22;54412;51.206;6.888;2022-11-20T12:32:34;6.20;99.90
5246;DHT22;54412;51.206;6.888;2022-11-20T12:35:53;6.30;99.90
5246;DHT22;54412;51.206;6.888;2022-11-20T12:41:21;6.30;99.90
5246;DHT22;54412;51.206;6.888;2022-11-20T12:59:23;6.20;99.90
5246;DHT22;54412;51.206;6.888;2022-11-20T13:05:24;6.20;99.90
5246;DHT22;54412;51.206;6.888;2022-11-20T13:07:58;6.20;99.90
5246;DHT22;54412;51.206;6.888;2022-11-20T13:10:34;6.20;99.90
5246;DHT22;54412;51.206;6.888;2022-11-20T13:13:33;6.30;99.90
5246;DHT22;54412;51.206;6.888;2022-11-20T13:16:19;6.20;99.90
5246;DHT22;54412;51.206;6.888;2022-11-20T13:19:03;6.20;99.90
5246;DHT22;54412;51.206;6.888;2022-11-20T13:21:42;6.10;99.90
5246;DHT22;54412;51.206;6.888;2022-11-20T13:24:23;6.10;99.90
5246;DHT22;54412;51.206;6.888;2022-11-20T13:29:42;5.90;99.90
5246;DHT22;54412;51.206;6.888;2022-11-20T13:32:18;6.00;99.90
5246;DHT22;54412;51.206;6.888;2022-11-20T13:34:57;6.20;99.90
5246;DHT22;54412;51.206;6.888;2022-11-20T13:42:51;6.00;99.90
5246;DHT22;54412;51.206;6.888;2022-11-20T13:45:32;6.10;99.90
5246;DHT22;54412;51.206;6.888;2022-11-20T13:48:03;6.20;99.90
5246;DHT22;54412;51.206;6.888;2022-11-20T13:53:23;6.30;99.90
5246;DHT22;54412;51.206;6.888;2022-11-20T13:56:17;6.30;99.90
5246;DHT22;54412;51.206;6.888;2022-11-20T14:02:20;6.30;99.90
5246;DHT22;54412;51.206;6.888;2022-11-20T14:04:49;6.30;99.90
5246;DHT22;54412;51.206;6.888;2022-11-20T14:07:19;6.30;99.90
5246;DHT22;54412;51.206;6.888;2022-11-20T14:09:52;6.30;99.90
5246;DHT22;54412;51.206;6.888;2022-11-20T14:12:22;6.30;99.90
5246;DHT22;54412;51.206;6.888;2022-11-20T14:14:53;6.30;99.90
5246;DHT22;54412;51.206;6.888;2022-11-20T14:17:34;6.40;99.90
5246;DHT22;54412;51.206;6.888;2022-11-20T14:20:06;6.30;99.90
5246;DHT22;54412;51.206;6.888;2022-11-20T14:22:38;6.30;99.90
5246;DHT22;54412;51.206;6.888;2022-11-20T14:27:43;6.40;99.90
5246;DHT22;54412;51.206;6.888;2022-11-20T14:30:18;6.40;99.90
5246;DHT22;54412;51.206;6.888;2022-11-20T14:32:49;6.50;99.90
5246;DHT22;54412;51.206;6.888;2022-11-20T14:35:25;6.40;99.90
5246;DHT22;54412;51.206;6.888;2022-11-20T14:37:52;6.50;99.90
5246;DHT22;54412;51.206;6.888;2022-11-20T14:40:35;6.60;99.90
5246;DHT22;54412;51.206;6.888;2022-11-20T14:43:04;6.40;99.90
5246;DHT22;54412;51.206;6.888;2022-11-20T14:45:44;6.50;99.90
5246;DHT22;54412;51.206;6.888;2022-11-20T14:48:14;6.60;99.90
5246;DHT22;54412;51.206;6.888;2022-11-20T14:50:41;6.50;99.90
5246;DHT22;54412;51.206;6.888;2022-11-20T14:53:06;6.40;99.90
5246;DHT22;54412;51.206;6.888;2022-11-20T14:55:34;6.40;99.90
5246;DHT22;54412;51.206;6.888;2022-11-20T14:58:22;6.50;99.90
5246;DHT22;54412;51.206;6.888;2022-11-20T15:00:56;6.50;99.90
5246;DHT22;54412;51.206;6.888;2022-11-20T15:03:40;6.50;99.90
5246;DHT22;54412;51.206;6.888;2022-11-20T15:06:07;6.50;99.90
5246;DHT22;54412;51.206;6.888;2022-11-20T15:08:36;6.40;99.90
5246;DHT22;54412;51.206;6.888;2022-11-20T15:11:02;6.40;99.90
5246;DHT22;54412;51.206;6.888;2022-11-20T15:13:31;6.40;99.90
5246;DHT22;54412;51.206;6.888;2022-11-20T15:16:03;6.40;99.90
5246;DHT22;54412;51.206;6.888;2022-11-20T15:18:38;6.40;99.90
5246;DHT22;54412;51.206;6.888;2022-11-20T15:21:18;6.50;99.90
5246;DHT22;54412;51.206;6.888;2022-11-20T15:23:46;6.50;99.90
5246;DHT22;54412;51.206;6.888;2022-11-20T15:26:15;6.60;99.90
5246;DHT22;54412;51.206;6.888;2022-11-20T15:28:51;6.60;99.90
5246;DHT22;54412;51.206;6.888;2022-11-20T15:31:23;6.70;99.90
5246;DHT22;54412;51.206;6.888;2022-11-20T15:33:49;6.70;99.90
5246;DHT22;54412;51.206;6.888;2022-11-20T15:36:15;6.60;99.90
5246;DHT22;54412;51.206;6.888;2022-11-20T15:38:41;6.60;99.90
5246;DHT22;54412;51.206;6.888;2022-11-20T15:41:07;6.60;99.90
5246;DHT22;54412;51.206;6.888;2022-11-20T15:43:33;6.50;99.90
5246;DHT22;54412;51.206;6.888;2022-11-20T15:46:02;6.50;99.90
5246;DHT22;54412;51.206;6.888;2022-11-20T15:48:34;6.50;99.90
5246;DHT22;54412;51.206;6.888;2022-11-20T15:51:21;6.40;99.90
5246;DHT22;54412;51.206;6.888;2022-11-20T15:53:52;6.40;99.90
5246;DHT22;54412;51.206;6.888;2022-11-20T15:56:18;6.50;99.90
5246;DHT22;54412;51.206;6.888;2022-11-20T15:58:43;6.40;99.90
5246;DHT22;54412;51.206;6.888;2022-11-20T16:01:14;6.40;99.90
5246;DHT22;54412;51.206;6.888;2022-11-20T16:03:42;6.40;99.90
5246;DHT22;54412;51.206;6.888;2022-11-20T16:06:08;6.40;99.90
5246;DHT22;54412;51.206;6.888;2022-11-20T16:08:34;6.50;99.90
5246;DHT22;54412;51.206;6.888;2022-11-20T16:10:59;6.40;99.90
5246;DHT22;54412;51.206;6.888;2022-11-20T16:13:25;6.40;99.90
5246;DHT22;54412;51.206;6.888;2022-11-20T16:16:21;6.50;99.90
5246;DHT22;54412;51.206;6.888;2022-11-20T16:18:53;6.50;99.90
5246;DHT22;54412;51.206;6.888;2022-11-20T16:21:19;6.40;99.90
5246;DHT22;54412;51.206;6.888;2022-11-20T16:23:44;6.50;99.90
5246;DHT22;54412;51.206;6.888;2022-11-20T16:26:15;6.50;99.90
5246;DHT22;54412;51.206;6.888;2022-11-20T16:28:45;6.40;99.90
5246;DHT22;54412;51.206;6.888;2022-11-20T16:31:13;6.50;99.90
5246;DHT22;54412;51.206;6.888;2022-11-20T16:33:41;6.40;99.90
5246;DHT22;54412;51.206;6.888;2022-11-20T16:36:12;6.40;99.90
5246;DHT22;54412;51.206;6.888;2022-11-20T16:38:40;6.40;99.90
5246;DHT22;54412;51.206;6.888;2022-11-20T16:41:07;6.40;99.90
5246;DHT22;54412;51.206;6.888;2022-11-20T16:43:47;6.50;99.90
5246;DHT22;54412;51.206;6.888;2022-11-20T16:46:16;6.60;99.90
5246;DHT22;54412;51.206;6.888;2022-11-20T16:48:44;6.50;99.90
5246;DHT22;54412;51.206;6.888;2022-11-20T16:51:13;6.50;99.90
5246;DHT22;54412;51.206;6.888;2022-11-20T16:53:39;6.50;99.90
5246;DHT22;54412;51.206;6.888;2022-11-20T16:56:12;6.40;99.90
5246;DHT22;54412;51.206;6.888;2022-11-20T16:58:46;6.40;99.90
5246;DHT22;54412;51.206;6.888;2022-11-20T17:01:16;6.50;99.90
5246;DHT22;54412;51.206;6.888;2022-11-20T17:03:53;6.50;99.90
5246;DHT22;54412;51.206;6.888;2022-11-20T17:06:22;6.50;99.90
5246;DHT22;54412;51.206;6.888;2022-11-20T17:08:49;6.60;99.90
5246;DHT22;54412;51.206;6.888;2022-11-20T17:11:17;6.60;99.90
5246;DHT22;54412;51.206;6.888;2022-11-20T17:13:44;6.60;99.90
5246;DHT22;54412;51.206;6.888;2022-11-20T17:16:14;6.60;99.90
5246;DHT22;54412;51.206;6.888;2022-11-20T17:18:42;6.60;99.90
5246;DHT22;54412;51.206;6.888;2022-11-20T17:21:09;6.50;99.90
5246;DHT22;54412;51.206;6.888;2022-11-20T17:23:38;6.70;99.90
5246;DHT22;54412;51.206;6.888;2022-11-20T17:26:09;6.70;99.90
5246;DHT22;54412;51.206;6.888;2022-11-20T17:28:36;6.60;99.90
5246;DHT22;54412;51.206;6.888;2022-11-20T17:31:16;6.60;99.90
5246;DHT22;54412;51.206;6.888;2022-11-20T17:33:43;6.60;99.90
5246;DHT22;54412;51.206;6.888;2022-11-20T17:36:12;6.70;99.90
5246;DHT22;54412;51.206;6.888;2022-11-20T17:38:40;6.60;99.90
5246;DHT22;54412;51.206;6.888;2022-11-20T17:41:09;6.70;99.90
5246;DHT22;54412;51.206;6.888;2022-11-20T17:43:37;6.70;99.90
5246;DHT22;54412;51.206;6.888;2022-11-20T17:46:11;6.70;99.90
5246;DHT22;54412;51.206;6.888;2022-11-20T17:48:39;6.80;99.90
5246;DHT22;54412;51.206;6.888;2022-11-20T17:51:19;6.80;99.90
5246;DHT22;54412;51.206;6.888;2022-11-20T17:53:51;6.70;99.90
5246;DHT22;54412;51.206;6.888;2022-11-20T17:56:19;6.80;99.90
5246;DHT22;54412;51.206;6.888;2022-11-20T17:59:05;6.90;99.90
5246;DHT22;54412;51.206;6.888;2022-11-20T18:01:32;6.80;99.90